sensor_id;sensor_type;location;lat;lon;timestamp;P1;durP1;ratioP1;P2;durP2;ratioP2
10389;SDS011;5241;47.830;12.972;2023-05-17T00:00:47;76.23;;;36.17;;
10389;SDS011;5241;47.830;12.972;2023-05-17T00:03:12;73.90;;;35.57;;
10389;SDS011;5241;47.830;12.972;2023-05-17T00:05:38;109.57;;;37.97;;
10389;SDS011;5241;47.830;12.972;2023-05-17T00:08:04;91.50;;;34.43;;
10389;SDS011;5241;47.830;12.972;2023-05-17T00:10:29;69.27;;;33.40;;
10389;SDS011;5241;47.830;12.972;2023-05-17T00:12:55;77.30;;;34.27;;
10389;SDS011;5241;47.830;12.972;2023-05-17T00:15:20;81.90;;;33.37;;
10389;SDS011;5241;47.830;12.972;2023-05-17T00:17:46;76.97;;;32.00;;
10389;SDS011;5241;47.830;12.972;2023-05-17T00:20:11;72.53;;;30.03;;
10389;SDS011;5241;47.830;12.972;2023-05-17T00:22:37;81.13;;;32.57;;
10389;SDS011;5241;47.830;12.972;2023-05-17T00:25:04;63.77;;;31.83;;
10389;SDS011;5241;47.830;12.972;2023-05-17T00:27:30;91.20;;;32.73;;
10389;SDS011;5241;47.830;12.972;2023-05-17T00:29:56;92.10;;;33.80;;
10389;SDS011;5241;47.830;12.972;2023-05-17T00:32:21;76.73;;;32.37;;
10389;SDS011;5241;47.830;12.972;2023-05-17T00:34:47;60.73;;;30.00;;
10389;SDS011;5241;47.830;12.972;2023-05-17T00:37:13;77.13;;;31.57;;
10389;SDS011;5241;47.830;12.972;2023-05-17T00:39:38;79.87;;;33.53;;
10389;SDS011;5241;47.830;12.972;2023-05-17T00:42:04;60.87;;;29.00;;
10389;SDS011;5241;47.830;12.972;2023-05-17T00:44:30;59.37;;;30.80;;
10389;SDS011;5241;47.830;12.972;2023-05-17T00:46:56;80.70;;;30.83;;
10389;SDS011;5241;47.830;12.972;2023-05-17T00:49:24;86.97;;;30.53;;
10389;SDS011;5241;47.830;12.972;2023-05-17T00:51:51;73.27;;;30.93;;
10389;SDS011;5241;47.830;12.972;2023-05-17T00:54:17;77.87;;;31.17;;
10389;SDS011;5241;47.830;12.972;2023-05-17T00:56:43;65.20;;;30.37;;
10389;SDS011;5241;47.830;12.972;2023-05-17T00:59:09;63.60;;;29.33;;
10389;SDS011;5241;47.830;12.972;2023-05-17T01:01:40;54.73;;;30.17;;
10389;SDS011;5241;47.830;12.972;2023-05-17T01:04:06;76.67;;;30.67;;
10389;SDS011;5241;47.830;12.972;2023-05-17T01:06:33;55.77;;;29.30;;
10389;SDS011;5241;47.830;12.972;2023-05-17T01:08:59;63.80;;;29.83;;
10389;SDS011;5241;47.830;12.972;2023-05-17T01:11:31;48.60;;;27.47;;
10389;SDS011;5241;47.830;12.972;2023-05-17T01:17:06;53.37;;;27.87;;
10389;SDS011;5241;47.830;12.972;2023-05-17T01:22:47;89.97;;;30.07;;
10389;SDS011;5241;47.830;12.972;2023-05-17T01:27:50;50.23;;;27.83;;
10389;SDS011;5241;47.830;12.972;2023-05-17T01:30:19;58.57;;;28.77;;
10389;SDS011;5241;47.830;12.972;2023-05-17T01:32:48;62.50;;;27.60;;
10389;SDS011;5241;47.830;12.972;2023-05-17T01:35:14;72.67;;;29.57;;
10389;SDS011;5241;47.830;12.972;2023-05-17T01:37:40;99.40;;;30.00;;
10389;SDS011;5241;47.830;12.972;2023-05-17T01:40:06;68.47;;;28.50;;
10389;SDS011;5241;47.830;12.972;2023-05-17T01:42:32;54.47;;;28.00;;
10389;SDS011;5241;47.830;12.972;2023-05-17T01:45:46;62.10;;;28.77;;
10389;SDS011;5241;47.830;12.972;2023-05-17T01:50:33;56.83;;;26.80;;
10389;SDS011;5241;47.830;12.972;2023-05-17T01:53:04;84.40;;;29.40;;
10389;SDS011;5241;47.830;12.972;2023-05-17T01:55:44;52.53;;;26.00;;
10389;SDS011;5241;47.830;12.972;2023-05-17T01:58:14;75.93;;;30.40;;
10389;SDS011;5241;47.830;12.972;2023-05-17T02:00:40;83.33;;;30.77;;
10389;SDS011;5241;47.830;12.972;2023-05-17T02:03:15;74.17;;;28.13;;
10389;SDS011;5241;47.830;12.972;2023-05-17T02:05:42;65.83;;;29.00;;
10389;SDS011;5241;47.830;12.972;2023-05-17T02:08:07;67.37;;;28.37;;
10389;SDS011;5241;47.830;12.972;2023-05-17T02:10:33;71.73;;;29.20;;
10389;SDS011;5241;47.830;12.972;2023-05-17T02:12:58;63.93;;;28.30;;
10389;SDS011;5241;47.830;12.972;2023-05-17T02:15:24;79.80;;;30.30;;
10389;SDS011;5241;47.830;12.972;2023-05-17T02:17:49;79.67;;;29.30;;
10389;SDS011;5241;47.830;12.972;2023-05-17T02:20:15;73.67;;;29.83;;
10389;SDS011;5241;47.830;12.972;2023-05-17T02:22:40;93.00;;;30.43;;
10389;SDS011;5241;47.830;12.972;2023-05-17T02:25:06;81.17;;;30.30;;
10389;SDS011;5241;47.830;12.972;2023-05-17T02:27:32;64.63;;;28.27;;
10389;SDS011;5241;47.830;12.972;2023-05-17T02:29:57;65.03;;;30.83;;
10389;SDS011;5241;47.830;12.972;2023-05-17T02:32:32;111.33;;;32.90;;
10389;SDS011;5241;47.830;12.972;2023-05-17T02:34:58;67.03;;;29.27;;
10389;SDS011;5241;47.830;12.972;2023-05-17T02:37:23;74.90;;;29.87;;
10389;SDS011;5241;47.830;12.972;2023-05-17T02:39:49;68.63;;;30.63;;
10389;SDS011;5241;47.830;12.972;2023-05-17T02:42:15;56.80;;;30.60;;
10389;SDS011;5241;47.830;12.972;2023-05-17T02:44:40;98.27;;;32.27;;
10389;SDS011;5241;47.830;12.972;2023-05-17T02:47:06;69.43;;;31.80;;
10389;SDS011;5241;47.830;12.972;2023-05-17T02:49:31;77.30;;;32.37;;
10389;SDS011;5241;47.830;12.972;2023-05-17T02:51:57;88.93;;;33.73;;
10389;SDS011;5241;47.830;12.972;2023-05-17T02:54:24;78.33;;;32.73;;
10389;SDS011;5241;47.830;12.972;2023-05-17T02:56:49;73.93;;;33.70;;
10389;SDS011;5241;47.830;12.972;2023-05-17T02:59:15;104.10;;;34.60;;
10389;SDS011;5241;47.830;12.972;2023-05-17T03:01:40;101.37;;;34.80;;
10389;SDS011;5241;47.830;12.972;2023-05-17T03:04:06;56.03;;;30.97;;
10389;SDS011;5241;47.830;12.972;2023-05-17T03:06:32;69.77;;;32.97;;
10389;SDS011;5241;47.830;12.972;2023-05-17T03:08:58;112.13;;;33.50;;
10389;SDS011;5241;47.830;12.972;2023-05-17T03:11:24;86.33;;;33.07;;
10389;SDS011;5241;47.830;12.972;2023-05-17T03:13:49;56.90;;;29.67;;
10389;SDS011;5241;47.830;12.972;2023-05-17T03:16:15;89.07;;;30.80;;
10389;SDS011;5241;47.830;12.972;2023-05-17T03:18:42;72.23;;;31.07;;
10389;SDS011;5241;47.830;12.972;2023-05-17T03:21:07;56.80;;;28.90;;
10389;SDS011;5241;47.830;12.972;2023-05-17T03:23:33;51.67;;;29.73;;
10389;SDS011;5241;47.830;12.972;2023-05-17T03:25:58;61.40;;;30.30;;
10389;SDS011;5241;47.830;12.972;2023-05-17T03:28:24;45.83;;;28.50;;
10389;SDS011;5241;47.830;12.972;2023-05-17T03:30:50;46.47;;;28.40;;
10389;SDS011;5241;47.830;12.972;2023-05-17T03:33:15;45.53;;;27.23;;
10389;SDS011;5241;47.830;12.972;2023-05-17T03:35:41;41.50;;;26.53;;
10389;SDS011;5241;47.830;12.972;2023-05-17T03:38:10;49.93;;;26.90;;
10389;SDS011;5241;47.830;12.972;2023-05-17T03:40:37;61.93;;;28.57;;
10389;SDS011;5241;47.830;12.972;2023-05-17T03:43:03;58.13;;;29.87;;
10389;SDS011;5241;47.830;12.972;2023-05-17T03:45:29;51.43;;;27.53;;
10389;SDS011;5241;47.830;12.972;2023-05-17T03:47:54;59.77;;;29.40;;
10389;SDS011;5241;47.830;12.972;2023-05-17T03:50:20;69.40;;;30.10;;
10389;SDS011;5241;47.830;12.972;2023-05-17T03:52:46;66.40;;;29.00;;
10389;SDS011;5241;47.830;12.972;2023-05-17T03:55:12;48.20;;;26.83;;
10389;SDS011;5241;47.830;12.972;2023-05-17T03:57:37;43.77;;;26.20;;
10389;SDS011;5241;47.830;12.972;2023-05-17T04:00:03;50.63;;;25.40;;
10389;SDS011;5241;47.830;12.972;2023-05-17T04:02:34;55.30;;;24.37;;
10389;SDS011;5241;47.830;12.972;2023-05-17T04:05:00;42.17;;;22.10;;
10389;SDS011;5241;47.830;12.972;2023-05-17T04:07:26;33.57;;;21.23;;
10389;SDS011;5241;47.830;12.972;2023-05-17T04:09:52;45.73;;;20.63;;
10389;SDS011;5241;47.830;12.972;2023-05-17T04:12:17;40.53;;;20.43;;
10389;SDS011;5241;47.830;12.972;2023-05-17T04:14:43;30.60;;;17.97;;
10389;SDS011;5241;47.830;12.972;2023-05-17T04:17:08;29.47;;;17.93;;
10389;SDS011;5241;47.830;12.972;2023-05-17T04:19:34;29.80;;;17.13;;
10389;SDS011;5241;47.830;12.972;2023-05-17T04:22:00;34.43;;;18.27;;
10389;SDS011;5241;47.830;12.972;2023-05-17T04:24:25;33.87;;;17.70;;
10389;SDS011;5241;47.830;12.972;2023-05-17T04:26:51;31.47;;;19.10;;
10389;SDS011;5241;47.830;12.972;2023-05-17T04:29:16;27.07;;;17.40;;
10389;SDS011;5241;47.830;12.972;2023-05-17T04:31:42;26.47;;;16.73;;
10389;SDS011;5241;47.830;12.972;2023-05-17T04:34:07;31.80;;;17.87;;
10389;SDS011;5241;47.830;12.972;2023-05-17T04:36:33;30.67;;;16.97;;
10389;SDS011;5241;47.830;12.972;2023-05-17T04:38:58;32.83;;;17.93;;
10389;SDS011;5241;47.830;12.972;2023-05-17T04:41:24;32.40;;;17.27;;
10389;SDS011;5241;47.830;12.972;2023-05-17T04:43:50;30.97;;;18.20;;
10389;SDS011;5241;47.830;12.972;2023-05-17T04:46:15;37.53;;;18.57;;
10389;SDS011;5241;47.830;12.972;2023-05-17T04:48:41;35.70;;;17.73;;
10389;SDS011;5241;47.830;12.972;2023-05-17T04:51:06;32.57;;;18.17;;
10389;SDS011;5241;47.830;12.972;2023-05-17T04:53:32;40.57;;;18.70;;
10389;SDS011;5241;47.830;12.972;2023-05-17T04:55:57;29.60;;;19.13;;
10389;SDS011;5241;47.830;12.972;2023-05-17T04:58:23;50.23;;;20.67;;
10389;SDS011;5241;47.830;12.972;2023-05-17T05:00:49;36.70;;;19.90;;
10389;SDS011;5241;47.830;12.972;2023-05-17T05:03:16;41.30;;;19.37;;
10389;SDS011;5241;47.830;12.972;2023-05-17T05:05:41;29.70;;;18.97;;
10389;SDS011;5241;47.830;12.972;2023-05-17T05:08:07;30.63;;;20.40;;
10389;SDS011;5241;47.830;12.972;2023-05-17T05:10:33;36.20;;;19.03;;
10389;SDS011;5241;47.830;12.972;2023-05-17T05:12:59;24.50;;;17.87;;
10389;SDS011;5241;47.830;12.972;2023-05-17T05:15:24;25.90;;;18.53;;
10389;SDS011;5241;47.830;12.972;2023-05-17T05:17:50;25.97;;;19.03;;
10389;SDS011;5241;47.830;12.972;2023-05-17T05:20:15;31.20;;;17.27;;
10389;SDS011;5241;47.830;12.972;2023-05-17T05:22:41;22.97;;;16.77;;
10389;SDS011;5241;47.830;12.972;2023-05-17T05:25:07;22.53;;;16.13;;
10389;SDS011;5241;47.830;12.972;2023-05-17T05:27:32;26.63;;;16.57;;
10389;SDS011;5241;47.830;12.972;2023-05-17T05:29:59;25.13;;;17.10;;
10389;SDS011;5241;47.830;12.972;2023-05-17T05:32:25;27.73;;;16.73;;
10389;SDS011;5241;47.830;12.972;2023-05-17T05:34:51;24.33;;;14.60;;
10389;SDS011;5241;47.830;12.972;2023-05-17T05:37:16;20.93;;;13.73;;
10389;SDS011;5241;47.830;12.972;2023-05-17T05:39:43;15.90;;;13.07;;
10389;SDS011;5241;47.830;12.972;2023-05-17T05:42:09;20.17;;;14.10;;
10389;SDS011;5241;47.830;12.972;2023-05-17T05:44:35;19.60;;;14.23;;
10389;SDS011;5241;47.830;12.972;2023-05-17T05:47:01;24.73;;;15.40;;
10389;SDS011;5241;47.830;12.972;2023-05-17T05:49:26;26.87;;;15.87;;
10389;SDS011;5241;47.830;12.972;2023-05-17T05:51:52;33.17;;;15.17;;
10389;SDS011;5241;47.830;12.972;2023-05-17T05:54:18;29.10;;;15.33;;
10389;SDS011;5241;47.830;12.972;2023-05-17T05:56:43;23.60;;;14.33;;
10389;SDS011;5241;47.830;12.972;2023-05-17T05:59:09;23.57;;;14.97;;
10389;SDS011;5241;47.830;12.972;2023-05-17T06:01:35;19.10;;;14.53;;
10389;SDS011;5241;47.830;12.972;2023-05-17T06:04:01;25.87;;;13.90;;
10389;SDS011;5241;47.830;12.972;2023-05-17T06:06:27;19.37;;;11.77;;
10389;SDS011;5241;47.830;12.972;2023-05-17T06:08:52;17.03;;;11.13;;
10389;SDS011;5241;47.830;12.972;2023-05-17T06:11:18;18.23;;;10.97;;
10389;SDS011;5241;47.830;12.972;2023-05-17T06:13:44;20.37;;;11.37;;
10389;SDS011;5241;47.830;12.972;2023-05-17T06:16:10;15.80;;;11.17;;
10389;SDS011;5241;47.830;12.972;2023-05-17T06:18:35;19.37;;;11.50;;
10389;SDS011;5241;47.830;12.972;2023-05-17T06:21:01;18.60;;;11.10;;
10389;SDS011;5241;47.830;12.972;2023-05-17T06:23:26;20.57;;;13.30;;
10389;SDS011;5241;47.830;12.972;2023-05-17T06:25:52;24.63;;;12.03;;
10389;SDS011;5241;47.830;12.972;2023-05-17T06:28:18;19.13;;;11.60;;
10389;SDS011;5241;47.830;12.972;2023-05-17T06:30:43;22.67;;;12.03;;
10389;SDS011;5241;47.830;12.972;2023-05-17T06:33:09;21.40;;;11.50;;
10389;SDS011;5241;47.830;12.972;2023-05-17T06:35:34;31.47;;;17.17;;
10389;SDS011;5241;47.830;12.972;2023-05-17T06:38:00;18.80;;;10.73;;
10389;SDS011;5241;47.830;12.972;2023-05-17T06:40:26;20.77;;;11.00;;
10389;SDS011;5241;47.830;12.972;2023-05-17T06:42:52;20.57;;;10.90;;
10389;SDS011;5241;47.830;12.972;2023-05-17T06:45:17;14.37;;;10.00;;
10389;SDS011;5241;47.830;12.972;2023-05-17T06:47:43;19.93;;;9.97;;
10389;SDS011;5241;47.830;12.972;2023-05-17T06:50:08;14.60;;;10.40;;
10389;SDS011;5241;47.830;12.972;2023-05-17T06:52:34;18.63;;;10.30;;
10389;SDS011;5241;47.830;12.972;2023-05-17T06:55:00;18.30;;;10.23;;
10389;SDS011;5241;47.830;12.972;2023-05-17T06:57:26;14.03;;;9.87;;
10389;SDS011;5241;47.830;12.972;2023-05-17T06:59:51;19.63;;;10.60;;
10389;SDS011;5241;47.830;12.972;2023-05-17T07:02:17;17.37;;;8.90;;
10389;SDS011;5241;47.830;12.972;2023-05-17T07:04:43;12.33;;;8.27;;
10389;SDS011;5241;47.830;12.972;2023-05-17T07:07:09;11.57;;;8.37;;
10389;SDS011;5241;47.830;12.972;2023-05-17T07:09:35;15.33;;;7.90;;
10389;SDS011;5241;47.830;12.972;2023-05-17T07:12:01;14.23;;;7.70;;
10389;SDS011;5241;47.830;12.972;2023-05-17T07:14:26;14.93;;;8.83;;
10389;SDS011;5241;47.830;12.972;2023-05-17T07:16:52;10.17;;;7.70;;
10389;SDS011;5241;47.830;12.972;2023-05-17T07:19:17;13.37;;;7.60;;
10389;SDS011;5241;47.830;12.972;2023-05-17T07:21:44;11.27;;;6.80;;
10389;SDS011;5241;47.830;12.972;2023-05-17T07:24:10;15.43;;;7.37;;
10389;SDS011;5241;47.830;12.972;2023-05-17T07:26:35;12.23;;;7.40;;
10389;SDS011;5241;47.830;12.972;2023-05-17T07:29:01;15.07;;;6.60;;
10389;SDS011;5241;47.830;12.972;2023-05-17T07:31:26;9.73;;;6.33;;
10389;SDS011;5241;47.830;12.972;2023-05-17T07:33:52;13.40;;;7.00;;
10389;SDS011;5241;47.830;12.972;2023-05-17T07:36:17;10.20;;;6.07;;
10389;SDS011;5241;47.830;12.972;2023-05-17T07:38:43;14.23;;;6.70;;
10389;SDS011;5241;47.830;12.972;2023-05-17T07:41:09;11.93;;;6.97;;
10389;SDS011;5241;47.830;12.972;2023-05-17T07:43:37;10.77;;;7.00;;
10389;SDS011;5241;47.830;12.972;2023-05-17T07:46:02;8.60;;;6.33;;
10389;SDS011;5241;47.830;12.972;2023-05-17T07:48:28;13.20;;;7.20;;
10389;SDS011;5241;47.830;12.972;2023-05-17T07:50:54;15.70;;;6.67;;
10389;SDS011;5241;47.830;12.972;2023-05-17T07:53:20;15.80;;;8.27;;
10389;SDS011;5241;47.830;12.972;2023-05-17T07:55:45;15.07;;;7.43;;
10389;SDS011;5241;47.830;12.972;2023-05-17T07:58:11;10.83;;;7.17;;
10389;SDS011;5241;47.830;12.972;2023-05-17T08:00:37;9.60;;;6.53;;
10389;SDS011;5241;47.830;12.972;2023-05-17T08:03:02;15.07;;;7.10;;
10389;SDS011;5241;47.830;12.972;2023-05-17T08:05:28;16.90;;;8.50;;
10389;SDS011;5241;47.830;12.972;2023-05-17T08:07:54;14.90;;;8.50;;
10389;SDS011;5241;47.830;12.972;2023-05-17T08:10:19;16.30;;;8.63;;
10389;SDS011;5241;47.830;12.972;2023-05-17T08:12:46;14.67;;;9.70;;
10389;SDS011;5241;47.830;12.972;2023-05-17T08:15:12;10.20;;;7.70;;
10389;SDS011;5241;47.830;12.972;2023-05-17T08:17:37;17.97;;;8.80;;
10389;SDS011;5241;47.830;12.972;2023-05-17T08:20:03;17.13;;;9.53;;
10389;SDS011;5241;47.830;12.972;2023-05-17T08:22:31;11.47;;;9.53;;
10389;SDS011;5241;47.830;12.972;2023-05-17T08:24:57;17.50;;;9.53;;
10389;SDS011;5241;47.830;12.972;2023-05-17T08:27:22;16.07;;;10.83;;
10389;SDS011;5241;47.830;12.972;2023-05-17T08:29:49;15.00;;;8.67;;
10389;SDS011;5241;47.830;12.972;2023-05-17T08:32:15;12.57;;;7.80;;
10389;SDS011;5241;47.830;12.972;2023-05-17T08:34:41;13.87;;;7.47;;
10389;SDS011;5241;47.830;12.972;2023-05-17T08:37:06;9.43;;;6.77;;
10389;SDS011;5241;47.830;12.972;2023-05-17T08:39:32;11.73;;;6.87;;
10389;SDS011;5241;47.830;12.972;2023-05-17T08:41:58;11.03;;;6.80;;
10389;SDS011;5241;47.830;12.972;2023-05-17T08:44:26;10.50;;;7.10;;
10389;SDS011;5241;47.830;12.972;2023-05-17T08:46:55;11.67;;;6.80;;
10389;SDS011;5241;47.830;12.972;2023-05-17T08:49:23;13.23;;;6.70;;
10389;SDS011;5241;47.830;12.972;2023-05-17T08:51:54;8.90;;;6.20;;
10389;SDS011;5241;47.830;12.972;2023-05-17T08:54:23;8.17;;;5.60;;
10389;SDS011;5241;47.830;12.972;2023-05-17T08:56:48;9.77;;;6.00;;
10389;SDS011;5241;47.830;12.972;2023-05-17T08:59:21;10.17;;;6.90;;
10389;SDS011;5241;47.830;12.972;2023-05-17T09:01:47;10.50;;;6.23;;
10389;SDS011;5241;47.830;12.972;2023-05-17T09:04:15;12.20;;;7.23;;
10389;SDS011;5241;47.830;12.972;2023-05-17T09:06:42;15.97;;;7.27;;
10389;SDS011;5241;47.830;12.972;2023-05-17T09:09:08;8.83;;;6.10;;
10389;SDS011;5241;47.830;12.972;2023-05-17T09:11:34;9.10;;;6.43;;
10389;SDS011;5241;47.830;12.972;2023-05-17T09:14:01;7.47;;;6.17;;
10389;SDS011;5241;47.830;12.972;2023-05-17T09:16:30;10.40;;;6.17;;
10389;SDS011;5241;47.830;12.972;2023-05-17T09:18:57;15.93;;;7.03;;
10389;SDS011;5241;47.830;12.972;2023-05-17T09:21:24;13.30;;;5.70;;
10389;SDS011;5241;47.830;12.972;2023-05-17T09:23:51;8.33;;;6.00;;
10389;SDS011;5241;47.830;12.972;2023-05-17T09:26:17;10.27;;;4.87;;
10389;SDS011;5241;47.830;12.972;2023-05-17T09:28:43;6.97;;;4.90;;
10389;SDS011;5241;47.830;12.972;2023-05-17T09:31:09;8.47;;;4.87;;
10389;SDS011;5241;47.830;12.972;2023-05-17T09:33:45;8.03;;;4.40;;
10389;SDS011;5241;47.830;12.972;2023-05-17T09:36:18;8.43;;;5.20;;
10389;SDS011;5241;47.830;12.972;2023-05-17T09:39:01;7.07;;;4.13;;
10389;SDS011;5241;47.830;12.972;2023-05-17T09:41:32;5.83;;;4.40;;
10389;SDS011;5241;47.830;12.972;2023-05-17T09:44:07;5.13;;;4.10;;
10389;SDS011;5241;47.830;12.972;2023-05-17T09:46:34;10.50;;;4.27;;
10389;SDS011;5241;47.830;12.972;2023-05-17T09:49:00;8.83;;;4.10;;
10389;SDS011;5241;47.830;12.972;2023-05-17T09:51:33;7.73;;;3.80;;
10389;SDS011;5241;47.830;12.972;2023-05-17T09:54:12;6.87;;;4.10;;
10389;SDS011;5241;47.830;12.972;2023-05-17T09:56:38;6.30;;;4.20;;
10389;SDS011;5241;47.830;12.972;2023-05-17T09:59:11;9.13;;;4.20;;
10389;SDS011;5241;47.830;12.972;2023-05-17T10:01:39;6.07;;;3.97;;
10389;SDS011;5241;47.830;12.972;2023-05-17T10:04:07;6.30;;;3.70;;
10389;SDS011;5241;47.830;12.972;2023-05-17T10:06:34;7.37;;;4.30;;
10389;SDS011;5241;47.830;12.972;2023-05-17T10:09:05;7.03;;;3.67;;
10389;SDS011;5241;47.830;12.972;2023-05-17T10:11:34;4.57;;;3.10;;
10389;SDS011;5241;47.830;12.972;2023-05-17T10:16:33;6.93;;;3.40;;
10389;SDS011;5241;47.830;12.972;2023-05-17T10:18:59;5.87;;;3.70;;
10389;SDS011;5241;47.830;12.972;2023-05-17T10:21:26;6.13;;;3.20;;
10389;SDS011;5241;47.830;12.972;2023-05-17T10:23:53;3.80;;;3.23;;
10389;SDS011;5241;47.830;12.972;2023-05-17T10:26:19;6.83;;;3.80;;
10389;SDS011;5241;47.830;12.972;2023-05-17T10:28:46;6.07;;;3.97;;
10389;SDS011;5241;47.830;12.972;2023-05-17T10:31:16;4.20;;;3.60;;
10389;SDS011;5241;47.830;12.972;2023-05-17T10:33:42;7.43;;;4.17;;
10389;SDS011;5241;47.830;12.972;2023-05-17T10:36:11;5.87;;;3.87;;
10389;SDS011;5241;47.830;12.972;2023-05-17T10:38:41;5.50;;;3.90;;
10389;SDS011;5241;47.830;12.972;2023-05-17T10:41:07;5.60;;;3.40;;
10389;SDS011;5241;47.830;12.972;2023-05-17T10:43:36;6.27;;;3.50;;
10389;SDS011;5241;47.830;12.972;2023-05-17T10:46:02;5.63;;;3.17;;
10389;SDS011;5241;47.830;12.972;2023-05-17T10:48:28;6.33;;;3.50;;
10389;SDS011;5241;47.830;12.972;2023-05-17T10:50:55;6.07;;;3.63;;
10389;SDS011;5241;47.830;12.972;2023-05-17T10:53:20;4.60;;;3.47;;
10389;SDS011;5241;47.830;12.972;2023-05-17T10:55:46;4.90;;;3.90;;
10389;SDS011;5241;47.830;12.972;2023-05-17T11:00:46;5.30;;;3.30;;
10389;SDS011;5241;47.830;12.972;2023-05-17T11:05:43;7.27;;;3.10;;
10389;SDS011;5241;47.830;12.972;2023-05-17T11:08:29;10.07;;;4.00;;
10389;SDS011;5241;47.830;12.972;2023-05-17T11:16:12;7.47;;;3.30;;
10389;SDS011;5241;47.830;12.972;2023-05-17T11:18:48;4.57;;;3.00;;
10389;SDS011;5241;47.830;12.972;2023-05-17T11:21:16;6.73;;;2.53;;
10389;SDS011;5241;47.830;12.972;2023-05-17T11:23:45;6.40;;;4.53;;
10389;SDS011;5241;47.830;12.972;2023-05-17T11:26:15;5.43;;;3.03;;
10389;SDS011;5241;47.830;12.972;2023-05-17T11:31:52;4.17;;;3.07;;
10389;SDS011;5241;47.830;12.972;2023-05-17T11:34:18;3.87;;;2.80;;
10389;SDS011;5241;47.830;12.972;2023-05-17T11:36:50;2.77;;;2.57;;
10389;SDS011;5241;47.830;12.972;2023-05-17T11:39:20;5.10;;;2.57;;
10389;SDS011;5241;47.830;12.972;2023-05-17T11:41:50;4.17;;;2.43;;
10389;SDS011;5241;47.830;12.972;2023-05-17T11:44:31;4.30;;;2.53;;
10389;SDS011;5241;47.830;12.972;2023-05-17T11:47:01;4.17;;;2.40;;
10389;SDS011;5241;47.830;12.972;2023-05-17T11:49:28;4.80;;;2.13;;
10389;SDS011;5241;47.830;12.972;2023-05-17T11:51:55;4.53;;;2.10;;
10389;SDS011;5241;47.830;12.972;2023-05-17T11:54:21;4.57;;;2.50;;
10389;SDS011;5241;47.830;12.972;2023-05-17T11:56:48;2.80;;;2.10;;
10389;SDS011;5241;47.830;12.972;2023-05-17T11:59:20;4.33;;;2.60;;
10389;SDS011;5241;47.830;12.972;2023-05-17T12:01:46;6.00;;;2.70;;
10389;SDS011;5241;47.830;12.972;2023-05-17T12:04:13;4.87;;;2.10;;
10389;SDS011;5241;47.830;12.972;2023-05-17T12:06:48;4.23;;;2.20;;
10389;SDS011;5241;47.830;12.972;2023-05-17T12:09:15;3.20;;;2.10;;
10389;SDS011;5241;47.830;12.972;2023-05-17T12:11:41;3.00;;;1.87;;
10389;SDS011;5241;47.830;12.972;2023-05-17T12:14:07;4.60;;;1.97;;
10389;SDS011;5241;47.830;12.972;2023-05-17T12:16:34;4.17;;;2.33;;
10389;SDS011;5241;47.830;12.972;2023-05-17T12:19:00;3.70;;;2.50;;
10389;SDS011;5241;47.830;12.972;2023-05-17T12:21:26;6.30;;;3.00;;
10389;SDS011;5241;47.830;12.972;2023-05-17T12:23:52;7.23;;;2.33;;
10389;SDS011;5241;47.830;12.972;2023-05-17T12:26:18;4.03;;;2.37;;
10389;SDS011;5241;47.830;12.972;2023-05-17T12:28:56;3.90;;;2.70;;
10389;SDS011;5241;47.830;12.972;2023-05-17T12:31:33;3.93;;;2.50;;
10389;SDS011;5241;47.830;12.972;2023-05-17T12:34:04;3.77;;;2.00;;
10389;SDS011;5241;47.830;12.972;2023-05-17T12:36:30;3.00;;;2.10;;
10389;SDS011;5241;47.830;12.972;2023-05-17T12:38:57;3.13;;;2.00;;
10389;SDS011;5241;47.830;12.972;2023-05-17T12:41:23;3.97;;;2.27;;
10389;SDS011;5241;47.830;12.972;2023-05-17T12:43:52;4.77;;;2.30;;
10389;SDS011;5241;47.830;12.972;2023-05-17T12:46:20;4.60;;;2.70;;
10389;SDS011;5241;47.830;12.972;2023-05-17T12:48:47;12.23;;;2.80;;
10389;SDS011;5241;47.830;12.972;2023-05-17T12:51:19;4.57;;;2.30;;
10389;SDS011;5241;47.830;12.972;2023-05-17T12:53:49;4.40;;;2.33;;
10389;SDS011;5241;47.830;12.972;2023-05-17T12:56:17;4.80;;;2.50;;
10389;SDS011;5241;47.830;12.972;2023-05-17T13:01:38;6.57;;;2.60;;
10389;SDS011;5241;47.830;12.972;2023-05-17T13:04:08;6.90;;;2.50;;
10389;SDS011;5241;47.830;12.972;2023-05-17T13:09:15;3.00;;;2.13;;
10389;SDS011;5241;47.830;12.972;2023-05-17T13:11:42;3.10;;;2.17;;
10389;SDS011;5241;47.830;12.972;2023-05-17T13:14:14;4.03;;;2.43;;
10389;SDS011;5241;47.830;12.972;2023-05-17T13:16:56;3.23;;;2.30;;
10389;SDS011;5241;47.830;12.972;2023-05-17T13:19:22;4.83;;;2.70;;
10389;SDS011;5241;47.830;12.972;2023-05-17T13:21:47;4.40;;;2.97;;
10389;SDS011;5241;47.830;12.972;2023-05-17T13:24:13;4.90;;;2.43;;
10389;SDS011;5241;47.830;12.972;2023-05-17T13:26:38;4.87;;;2.50;;
10389;SDS011;5241;47.830;12.972;2023-05-17T13:29:04;3.53;;;2.00;;
10389;SDS011;5241;47.830;12.972;2023-05-17T13:31:30;3.73;;;1.97;;
10389;SDS011;5241;47.830;12.972;2023-05-17T13:33:55;4.37;;;2.30;;
10389;SDS011;5241;47.830;12.972;2023-05-17T13:36:21;4.00;;;1.70;;
10389;SDS011;5241;47.830;12.972;2023-05-17T13:38:46;2.90;;;1.80;;
10389;SDS011;5241;47.830;12.972;2023-05-17T13:41:12;2.00;;;1.47;;
10389;SDS011;5241;47.830;12.972;2023-05-17T13:43:37;2.00;;;1.60;;
10389;SDS011;5241;47.830;12.972;2023-05-17T13:46:03;1.73;;;1.63;;
10389;SDS011;5241;47.830;12.972;2023-05-17T13:48:29;5.27;;;1.80;;
10389;SDS011;5241;47.830;12.972;2023-05-17T13:50:54;3.57;;;1.47;;
10389;SDS011;5241;47.830;12.972;2023-05-17T13:53:20;2.07;;;1.73;;
10389;SDS011;5241;47.830;12.972;2023-05-17T13:55:46;3.10;;;1.80;;
10389;SDS011;5241;47.830;12.972;2023-05-17T13:58:12;2.70;;;1.80;;
10389;SDS011;5241;47.830;12.972;2023-05-17T14:00:38;1.87;;;1.67;;
10389;SDS011;5241;47.830;12.972;2023-05-17T14:03:07;2.97;;;2.00;;
10389;SDS011;5241;47.830;12.972;2023-05-17T14:05:33;2.80;;;1.83;;
10389;SDS011;5241;47.830;12.972;2023-05-17T14:08:00;2.70;;;1.90;;
10389;SDS011;5241;47.830;12.972;2023-05-17T14:10:28;2.00;;;1.80;;
10389;SDS011;5241;47.830;12.972;2023-05-17T14:12:54;3.87;;;2.00;;
10389;SDS011;5241;47.830;12.972;2023-05-17T14:15:20;3.57;;;2.10;;
10389;SDS011;5241;47.830;12.972;2023-05-17T14:17:47;4.07;;;2.60;;
10389;SDS011;5241;47.830;12.972;2023-05-17T14:20:13;2.50;;;2.10;;
10389;SDS011;5241;47.830;12.972;2023-05-17T14:22:39;4.37;;;2.70;;
10389;SDS011;5241;47.830;12.972;2023-05-17T14:25:05;5.17;;;2.63;;
10389;SDS011;5241;47.830;12.972;2023-05-17T14:27:31;4.50;;;3.20;;
10389;SDS011;5241;47.830;12.972;2023-05-17T14:29:56;5.43;;;3.57;;
10389;SDS011;5241;47.830;12.972;2023-05-17T14:32:22;4.70;;;3.93;;
10389;SDS011;5241;47.830;12.972;2023-05-17T14:34:48;4.40;;;4.00;;
10389;SDS011;5241;47.830;12.972;2023-05-17T14:37:13;5.50;;;4.63;;
10389;SDS011;5241;47.830;12.972;2023-05-17T14:39:39;8.13;;;4.60;;
10389;SDS011;5241;47.830;12.972;2023-05-17T14:42:04;6.37;;;4.83;;
10389;SDS011;5241;47.830;12.972;2023-05-17T14:44:30;7.90;;;5.33;;
10389;SDS011;5241;47.830;12.972;2023-05-17T14:46:55;8.50;;;5.83;;
10389;SDS011;5241;47.830;12.972;2023-05-17T14:49:21;8.13;;;5.10;;
10389;SDS011;5241;47.830;12.972;2023-05-17T14:51:46;6.87;;;5.70;;
10389;SDS011;5241;47.830;12.972;2023-05-17T14:54:12;8.23;;;5.90;;
10389;SDS011;5241;47.830;12.972;2023-05-17T14:56:38;7.00;;;5.50;;
10389;SDS011;5241;47.830;12.972;2023-05-17T14:59:03;7.57;;;6.07;;
10389;SDS011;5241;47.830;12.972;2023-05-17T15:01:29;6.60;;;5.83;;
10389;SDS011;5241;47.830;12.972;2023-05-17T15:03:54;7.30;;;6.13;;